createdAt,value
2018-09-28T00:00:25.364Z,99901.37
2018-09-28T00:02:54.235Z,99904.88
2018-09-28T00:05:23.067Z,99913.47
2018-09-28T00:07:52.212Z,99909.44
2018-09-28T00:10:21.100Z,99913.60
2018-09-28T00:12:49.931Z,99914.95
2018-09-28T00:15:19.400Z,99928.07
2018-09-28T00:17:48.158Z,99928.89
2018-09-28T00:20:16.978Z,99931.25
2018-09-28T00:22:45.810Z,99925.87
2018-09-28T00:25:14.606Z,99924.03
2018-09-28T00:27:43.449Z,99925.52
2018-09-28T00:30:12.313Z,99933.95
2018-09-28T00:32:41.200Z,99930.41
2018-09-28T00:35:10.092Z,99947.39
2018-09-28T00:37:38.848Z,99944.21
2018-09-28T00:40:07.709Z,99945.55
2018-09-28T00:42:36.515Z,99953.63
2018-09-28T00:45:05.304Z,99957.66
2018-09-28T00:47:34.225Z,99960.67
2018-09-28T00:50:02.937Z,99957.14
2018-09-28T00:52:31.821Z,99965.73
2018-09-28T00:55:00.552Z,99972.29
2018-09-28T00:57:29.358Z,99965.20
2018-09-28T00:59:58.761Z,99966.91
2018-09-28T01:02:27.558Z,99973.27
2018-09-28T01:04:56.305Z,99978.66
2018-09-28T01:07:25.038Z,99975.96
2018-09-28T01:09:53.923Z,99982.69
2018-09-28T01:12:22.672Z,99986.72
2018-09-28T01:14:51.581Z,100001.38
2018-09-28T01:17:20.459Z,100002.53
2018-09-28T01:19:49.225Z,100011.78
2018-09-28T01:22:18.024Z,100017.16
2018-09-28T01:24:46.822Z,100014.97
2018-09-28T01:27:15.560Z,100023.39
2018-09-28T01:29:44.354Z,100025.72
2018-09-28T01:32:13.137Z,100040.39
2018-09-28T01:34:41.993Z,100048.09
2018-09-28T01:37:10.735Z,100050.30
2018-09-28T01:39:39.504Z,100063.58
2018-09-28T01:42:08.304Z,100072.30
2018-09-28T01:44:37.095Z,100075.48
2018-09-28T01:47:05.973Z,100083.56
2018-09-28T01:49:34.752Z,100084.58
2018-09-28T01:52:03.579Z,100088.12
2018-09-28T01:54:32.295Z,100103.23
2018-09-28T01:57:01.063Z,100102.06
2018-09-28T01:59:29.880Z,100104.75
2018-09-28T02:01:58.674Z,100104.75
2018-09-28T02:04:27.483Z,100107.08
2018-09-28T02:06:56.261Z,100111.11
2018-09-28T02:09:25.020Z,100117.34
2018-09-28T02:11:53.810Z,100119.67
2018-09-28T02:14:22.582Z,100131.44
2018-09-28T02:16:51.493Z,100125.58
2018-09-28T02:19:20.294Z,100131.44
2018-09-28T02:21:49.077Z,100135.48
2018-09-28T02:24:17.940Z,100144.40
2018-09-28T02:26:46.706Z,100142.20
2018-09-28T02:29:15.451Z,100148.56
2018-09-28T02:31:44.219Z,100151.25
2018-09-28T02:34:13.015Z,100156.63
2018-09-28T02:36:41.869Z,100157.98
2018-09-28T02:39:10.652Z,100163.36
2018-09-28T02:41:39.495Z,100160.67
2018-09-28T02:44:08.486Z,100163.84
2018-09-28T02:46:37.299Z,100163.84
2018-09-28T02:49:06.178Z,100167.39
2018-09-28T02:51:34.949Z,100167.39
2018-09-28T02:54:04.021Z,100166.53
2018-09-28T02:56:32.856Z,100170.57
2018-09-28T02:59:01.591Z,100177.82
2018-09-28T03:01:30.308Z,100184.19
2018-09-28T03:03:59.117Z,100184.19
2018-09-28T03:06:27.921Z,100190.91
2018-09-28T03:08:56.685Z,100183.33
2018-09-28T03:11:25.531Z,100187.85
2018-09-28T03:13:54.305Z,100189.20
2018-09-28T03:16:23.090Z,100192.41
2018-09-28T03:18:51.921Z,100200.81
2018-09-28T03:21:20.673Z,100217.80
2018-09-28T03:23:49.420Z,100219.64
2018-09-28T03:26:18.140Z,100226.36
2018-09-28T03:28:46.822Z,100229.55
2018-09-28T03:31:15.528Z,100234.43
2018-09-28T03:33:44.233Z,100237.12
2018-09-28T03:36:12.949Z,100238.47
2018-09-28T03:38:41.605Z,100242.01
2018-09-28T03:41:10.380Z,100251.91
2018-09-28T03:43:39.068Z,100250.94
2018-09-28T03:46:08.084Z,100255.09
2018-09-28T03:48:36.919Z,100259.98
2018-09-28T03:51:05.665Z,100262.19
2018-09-28T03:53:34.509Z,100267.56
2018-09-28T03:56:03.253Z,100274.28
2018-09-28T03:58:31.992Z,100274.28
2018-09-28T04:01:00.750Z,100273.80
2018-09-28T04:03:29.510Z,100276.00
2018-09-28T04:05:58.362Z,100278.81
2018-09-28T04:08:27.091Z,100279.17
2018-09-28T04:10:55.823Z,100289.94
2018-09-28T04:13:24.582Z,100289.94
2018-09-28T04:15:53.300Z,100294.95
2018-09-28T04:18:22.044Z,100298.49
2018-09-28T04:20:50.823Z,100314.48
2018-09-28T04:23:19.556Z,100309.62
2018-09-28T04:25:48.372Z,100310.60
2018-09-28T04:28:17.171Z,100311.94
2018-09-28T04:30:45.985Z,100315.13
2018-09-28T04:33:14.815Z,100320.50
2018-09-28T04:35:43.565Z,100329.42
2018-09-28T04:38:12.366Z,100327.23
2018-09-28T04:40:41.182Z,100331.27
2018-09-28T04:43:09.919Z,100333.62
2018-09-28T04:45:38.822Z,100337.66
2018-09-28T04:48:07.530Z,100343.03
2018-09-28T04:50:36.413Z,100349.76
2018-09-28T04:53:05.150Z,100348.05
2018-09-28T04:55:34.244Z,100353.06
2018-09-28T04:58:03.007Z,100362.47
2018-09-28T05:00:31.819Z,100365.16
2018-09-28T05:03:00.617Z,100373.23
2018-09-28T05:05:29.561Z,100378.61
2018-09-28T05:07:58.394Z,100383.13
2018-09-28T05:10:27.152Z,100385.83
2018-09-28T05:12:55.871Z,100393.07
2018-09-28T05:15:24.721Z,100394.75
2018-09-28T05:17:53.455Z,100399.42
2018-09-28T05:20:22.230Z,100406.52
2018-09-28T05:22:51.086Z,100413.73
2018-09-28T05:25:19.928Z,100417.40
2018-09-28T05:27:48.688Z,100435.25
2018-09-28T05:30:17.547Z,100428.03
2018-09-28T05:32:46.378Z,100438.91
2018-09-28T05:35:15.087Z,100437.57
2018-09-28T05:37:43.822Z,100440.75
2018-09-28T05:40:12.668Z,100443.96
2018-09-28T05:42:41.424Z,100455.55
2018-09-28T05:45:10.159Z,100452.84
2018-09-28T05:47:38.909Z,100451.51
2018-09-28T05:50:07.684Z,100450.16
2018-09-28T05:52:36.659Z,100464.47
2018-09-28T05:55:05.442Z,100466.30
2018-09-28T05:57:34.248Z,100461.77
2018-09-28T06:00:09.210Z,100464.84
2018-09-28T06:02:43.179Z,100468.88
2018-09-28T06:05:17.269Z,100473.77
2018-09-28T06:07:46.036Z,100482.16
2018-09-28T06:10:14.791Z,100482.53
2018-09-28T06:12:43.543Z,100482.91
2018-09-28T06:15:12.291Z,100483.23
2018-09-28T06:17:41.041Z,100495.22
2018-09-28T06:20:10.195Z,100502.77
2018-09-28T06:22:39.006Z,100515.73
2018-09-28T06:25:07.869Z,100514.39
2018-09-28T06:27:36.786Z,100515.24
2018-09-28T06:30:06.704Z,100520.14
2018-09-28T06:32:35.510Z,100531.75
2018-09-28T06:35:04.585Z,100529.06
2018-09-28T06:37:33.289Z,100540.16
2018-09-28T06:40:02.021Z,100544.20
2018-09-28T06:42:30.865Z,100546.55
2018-09-28T06:44:59.512Z,100551.93
2018-09-28T06:47:28.314Z,100561.69
2018-09-28T06:49:57.042Z,100559.84
2018-09-28T06:52:25.907Z,100566.09
2018-09-28T06:54:54.646Z,100566.58
2018-09-28T06:57:23.511Z,100572.81
2018-09-28T06:59:52.344Z,100576.36
2018-09-28T07:02:21.140Z,100584.43
2018-09-28T07:04:49.898Z,100582.94
2018-09-28T07:07:18.876Z,100594.89
2018-09-28T07:09:47.622Z,100594.06
2018-09-28T07:12:16.652Z,100590.52
2018-09-28T07:14:45.417Z,100599.45
2018-09-28T07:17:14.125Z,100595.41
2018-09-28T07:19:42.976Z,100608.34
2018-09-28T07:22:11.754Z,100612.05
2018-09-28T07:24:40.705Z,100612.38
2018-09-28T07:27:09.400Z,100623.66
2018-09-28T07:29:38.296Z,100626.20
2018-09-28T07:32:07.079Z,100627.70
2018-09-28T07:34:35.862Z,100633.08
2018-09-28T07:37:05.085Z,100636.74
2018-09-28T07:39:33.649Z,100641.14
2018-09-28T07:42:02.588Z,100643.95
2018-09-28T07:44:31.337Z,100645.30
2018-09-28T07:47:00.125Z,100654.94
2018-09-28T07:49:28.888Z,100654.59
2018-09-28T07:51:57.648Z,100648.84
2018-09-28T07:54:26.426Z,100656.44
2018-09-28T07:56:55.156Z,100657.30
2018-09-28T07:59:23.976Z,100668.05
2018-09-28T08:01:52.911Z,100674.26
2018-09-28T08:04:21.679Z,100675.27
2018-09-28T08:06:50.414Z,100676.12
2018-09-28T08:09:19.114Z,100686.03
2018-09-28T08:11:47.849Z,100694.44
2018-09-28T08:14:16.555Z,100687.70
2018-09-28T08:16:45.309Z,100697.13
2018-09-28T08:19:14.086Z,100699.33
2018-09-28T08:21:42.870Z,100703.86
2018-09-28T08:24:11.682Z,100708.27
2018-09-28T08:26:40.439Z,100703.03
2018-09-28T08:29:09.278Z,100708.75
2018-09-28T08:31:38.057Z,100719.51
2018-09-28T08:34:06.976Z,100724.41
2018-09-28T08:36:35.717Z,100725.16
2018-09-28T08:39:05.698Z,100736.51
2018-09-28T08:41:34.416Z,100732.96
2018-09-28T08:44:03.201Z,100735.17
2018-09-28T08:46:32.065Z,100739.20
2018-09-28T08:49:00.986Z,100738.72
2018-09-28T08:51:29.788Z,100740.06
2018-09-28T08:53:58.540Z,100752.50
2018-09-28T08:56:27.299Z,100749.81
2018-09-28T08:58:56.047Z,100757.06
2018-09-28T09:01:24.842Z,100768.16
2018-09-28T09:03:53.635Z,100761.09
2018-09-28T09:06:22.421Z,100769.02
2018-09-28T09:08:51.177Z,100767.30
2018-09-28T09:11:19.908Z,100774.89
2018-09-28T09:13:48.662Z,100783.33
2018-09-28T09:16:17.414Z,100779.30
2018-09-28T09:18:46.155Z,100791.78
2018-09-28T09:21:14.915Z,100781.99
2018-09-28T09:23:43.671Z,100780.50
2018-09-28T09:26:12.421Z,100780.50
2018-09-28T09:28:41.190Z,100775.12
2018-09-28T09:31:09.939Z,100785.39
2018-09-28T09:33:38.678Z,100790.29
2018-09-28T09:36:07.699Z,100792.12
2018-09-28T09:38:36.447Z,100799.70
2018-09-28T09:41:05.251Z,100793.47
2018-09-28T09:43:34.025Z,100809.50
2018-09-28T09:46:02.775Z,100806.80
2018-09-28T09:48:31.654Z,100812.19
2018-09-28T09:51:00.439Z,100807.63
2018-09-28T09:53:29.172Z,100813.39
2018-09-28T09:55:58.034Z,100822.66
2018-09-28T09:58:26.738Z,100830.39
2018-09-28T10:01:00.700Z,100829.53
2018-09-28T10:04:34.418Z,100840.67
2018-09-28T10:07:03.254Z,100840.55
2018-09-28T10:09:32.024Z,100848.29
2018-09-28T10:12:00.983Z,100847.77
2018-09-28T10:14:29.750Z,100853.15
2018-09-28T10:16:58.714Z,100850.98
2018-09-28T10:19:27.454Z,100854.87
2018-09-28T10:21:56.255Z,100870.05
2018-09-28T10:24:24.987Z,100854.87
2018-09-28T10:26:53.757Z,100860.63
2018-09-28T10:29:22.541Z,100872.73
2018-09-28T10:31:51.391Z,100869.19
2018-09-28T10:34:20.196Z,100873.70
2018-09-28T10:36:49.020Z,100881.30
2018-09-28T10:39:17.832Z,100888.88
2018-09-28T10:41:46.587Z,100890.22
2018-09-28T10:44:15.380Z,100895.61
2018-09-28T10:46:44.179Z,100892.39
2018-09-28T10:49:12.931Z,100890.22
2018-09-28T10:51:41.809Z,100891.57
2018-09-28T10:54:10.640Z,100895.95
2018-09-28T10:56:39.611Z,100899.13
2018-09-28T10:59:08.352Z,100899.64
2018-09-28T11:01:37.135Z,100902.81
2018-09-28T11:04:05.891Z,100906.86
2018-09-28T11:06:34.639Z,100909.06
2018-09-28T11:09:03.793Z,100911.23
2018-09-28T11:11:32.535Z,100919.68
2018-09-28T11:14:01.308Z,100917.63
2018-09-28T11:16:30.143Z,100929.24
2018-09-28T11:18:58.987Z,100933.28
2018-09-28T11:21:27.681Z,100920.56
2018-09-28T11:23:56.387Z,100931.94
2018-09-28T11:26:25.173Z,100935.59
2018-09-28T11:28:53.943Z,100945.39
2018-09-28T11:31:22.699Z,100942.32
2018-09-28T11:33:51.587Z,100950.88
2018-09-28T11:36:20.289Z,100957.61
2018-09-28T11:38:49.021Z,100958.84
2018-09-28T11:41:17.800Z,100964.23
2018-09-28T11:43:46.575Z,100958.33
2018-09-28T11:46:15.426Z,100969.09
2018-09-28T11:48:44.232Z,100963.70
2018-09-28T11:51:13.037Z,100969.47
2018-09-28T11:53:41.805Z,100978.88
2018-09-28T11:56:10.579Z,100981.58
2018-09-28T11:58:39.411Z,100978.40
2018-09-28T12:01:08.227Z,100987.33
2018-09-28T12:03:37.209Z,100990.85
2018-09-28T12:06:05.966Z,100983.30
2018-09-28T12:08:34.704Z,100991.61
2018-09-28T12:11:04.017Z,100992.20
2018-09-28T12:13:32.777Z,100993.44
2018-09-28T12:16:01.536Z,100985.84
2018-09-28T12:18:30.267Z,100990.85
2018-09-28T12:20:59.015Z,100995.27
2018-09-28T12:23:27.751Z,100996.61
2018-09-28T12:25:56.524Z,100994.55
2018-09-28T12:28:25.316Z,100997.09
2018-09-28T12:30:54.099Z,101000.79
2018-09-28T12:33:22.898Z,101009.58
2018-09-28T12:35:51.718Z,101005.17
2018-09-28T12:38:20.567Z,101005.55
2018-09-28T12:40:49.413Z,101008.72
2018-09-28T12:43:18.161Z,101004.83
2018-09-28T12:45:47.029Z,101002.62
2018-09-28T12:48:15.848Z,101009.69
2018-09-28T12:50:44.760Z,101012.90
2018-09-28T12:53:13.563Z,101006.66
2018-09-28T12:55:42.356Z,101019.25
2018-09-28T12:58:11.085Z,101017.05
2018-09-28T13:00:40.034Z,101010.80
2018-09-28T13:03:08.735Z,101006.42
2018-09-28T13:05:37.620Z,101010.45
2018-09-28T13:08:06.510Z,101020.11
2018-09-28T13:10:35.338Z,101020.36
2018-09-28T13:13:04.133Z,101028.81
2018-09-28T13:15:32.954Z,101039.58
2018-09-28T13:18:01.718Z,101046.78
2018-09-28T13:20:30.558Z,101046.41
2018-09-28T13:22:59.311Z,101058.90
2018-09-28T13:25:28.043Z,101081.39
2018-09-28T13:27:56.842Z,101075.53
2018-09-28T13:30:25.676Z,101048.23
2018-09-28T13:32:54.467Z,101055.48
2018-09-28T13:35:23.269Z,101062.21
2018-09-28T13:37:52.097Z,101062.32
2018-09-28T13:40:21.034Z,101068.56
2018-09-28T13:42:49.855Z,101081.16
2018-09-28T13:45:18.681Z,101083.36
2018-09-28T13:47:47.478Z,101082.98
2018-09-28T13:50:16.225Z,101092.89
2018-09-28T13:52:44.993Z,101097.92
2018-09-28T13:55:13.768Z,101101.48
2018-09-28T13:57:42.590Z,101104.17
2018-09-28T14:00:11.548Z,101111.86
2018-09-28T14:02:40.355Z,101118.59
2018-09-28T14:05:09.253Z,101119.07
2018-09-28T14:07:38.153Z,101123.59
2018-09-28T14:10:07.047Z,101120.91
2018-09-28T14:12:35.898Z,101120.91
2018-09-28T14:15:04.911Z,101122.77
2018-09-28T14:17:33.827Z,101123.73
2018-09-28T14:20:02.575Z,101134.35
2018-09-28T14:22:31.364Z,101156.88
2018-09-28T14:25:00.099Z,101143.43
2018-09-28T14:27:28.868Z,101145.12
2018-09-28T14:29:57.749Z,101151.50
2018-09-28T14:32:26.557Z,101162.61
2018-09-28T14:34:55.324Z,101164.47
2018-09-28T14:37:24.108Z,101172.55
2018-09-28T14:39:52.875Z,101164.47
2018-09-28T14:42:21.699Z,101160.78
2018-09-28T14:44:50.535Z,101176.58
2018-09-28T14:47:19.342Z,101177.41
2018-09-28T14:49:48.121Z,101180.09
2018-09-28T14:52:16.955Z,101181.83
2018-09-28T14:54:45.726Z,101182.79
2018-09-28T14:57:14.484Z,101192.59
2018-09-28T14:59:43.241Z,101197.11
2018-09-28T15:02:12.088Z,101195.77
2018-09-28T15:04:40.972Z,101191.24
2018-09-28T15:07:09.780Z,101198.45
2018-09-28T15:09:38.636Z,101201.52
2018-09-28T15:12:07.739Z,101202.48
2018-09-28T15:14:36.495Z,101202.00
2018-09-28T15:17:05.356Z,101211.42
2018-09-28T15:19:34.138Z,101216.67
2018-09-28T15:22:03.779Z,101218.53
2018-09-28T15:24:32.597Z,101221.22
2018-09-28T15:27:01.363Z,101226.61
2018-09-28T15:29:30.131Z,101234.16
2018-09-28T15:31:58.898Z,101240.89
2018-09-28T15:34:27.908Z,101242.37
2018-09-28T15:36:56.899Z,101250.82
2018-09-28T15:39:25.733Z,101250.82
2018-09-28T15:41:54.500Z,101255.34
2018-09-28T15:44:23.315Z,101248.61
2018-09-28T15:46:52.084Z,101260.72
2018-09-28T15:49:20.878Z,101250.44
2018-09-28T15:51:49.694Z,101250.92
2018-09-28T15:54:18.458Z,101261.69
2018-09-28T15:56:47.323Z,101263.89
2018-09-28T15:59:16.187Z,101260.83
2018-09-28T16:01:44.890Z,101266.11
2018-09-28T16:04:13.982Z,101269.28
2018-09-28T16:06:42.881Z,101267.06
2018-09-28T16:09:11.705Z,101271.11
2018-09-28T16:11:40.453Z,101276.48
2018-09-28T16:14:09.229Z,101275.14
2018-09-28T16:16:38.028Z,101278.31
2018-09-28T16:19:06.924Z,101283.22
2018-09-28T16:21:35.855Z,101277.48
2018-09-28T16:24:04.935Z,101285.05
2018-09-28T16:26:33.753Z,101292.28
2018-09-28T16:29:02.643Z,101286.91
2018-09-28T16:31:31.497Z,101293.63
2018-09-28T16:34:00.277Z,101290.56
2018-09-28T16:36:29.088Z,101299.50
2018-09-28T16:38:57.868Z,101297.28
2018-09-28T16:41:26.648Z,101300.94
2018-09-28T16:43:55.596Z,101304.02
2018-09-28T16:46:24.370Z,101304.98
2018-09-28T16:48:53.189Z,101311.70
2018-09-28T16:51:22.110Z,101307.32
2018-09-28T16:53:50.930Z,101310.02
2018-09-28T16:56:23.327Z,101313.05
2018-09-28T16:58:52.154Z,101310.88
2018-09-28T17:01:20.974Z,101319.78
2018-09-28T17:03:49.824Z,101315.16
2018-09-28T17:06:18.696Z,101323.23
2018-09-28T17:08:47.500Z,101326.27
2018-09-28T17:11:16.342Z,101327.00
2018-09-28T17:13:45.172Z,101335.45
2018-09-28T17:16:13.983Z,101341.22
2018-09-28T17:18:42.898Z,101341.08
2018-09-28T17:21:11.675Z,101341.08
2018-09-28T17:23:40.463Z,101341.33
2018-09-28T17:26:09.329Z,101344.41
2018-09-28T17:28:38.212Z,101345.63
2018-09-28T17:31:07.221Z,101352.25
2018-09-28T17:33:36.018Z,101358.46
2018-09-28T17:36:05.019Z,101361.67
2018-09-28T17:38:33.852Z,101363.36
2018-09-28T17:41:02.643Z,101364.22
2018-09-28T17:43:31.457Z,101366.44
2018-09-28T17:46:00.376Z,101360.19
2018-09-28T17:48:29.190Z,101365.09
2018-09-28T17:50:57.953Z,101373.64
2018-09-28T17:53:26.759Z,101372.69
2018-09-28T17:55:55.670Z,101378.89
2018-09-28T17:58:24.595Z,101379.41
2018-09-28T18:00:53.487Z,101384.80
2018-09-28T18:03:22.284Z,101391.52
2018-09-28T18:05:51.180Z,101395.05
2018-09-28T18:08:20.585Z,101393.70
2018-09-28T18:10:49.400Z,101398.25
2018-09-28T18:13:18.182Z,101398.60
2018-09-28T18:15:46.926Z,101396.39
2018-09-28T18:18:15.748Z,101401.77
2018-09-28T18:20:44.612Z,101406.33
2018-09-28T18:23:13.439Z,101409.84
2018-09-28T18:25:42.261Z,101411.33
2018-09-28T18:28:11.112Z,101420.27
2018-09-28T18:30:39.877Z,101417.58
2018-09-28T18:33:08.780Z,101423.06
2018-09-28T18:35:37.710Z,101424.41
2018-09-28T18:38:06.648Z,101422.58
2018-09-28T18:40:35.861Z,101415.12
2018-09-28T18:43:05.036Z,101428.95
2018-09-28T18:45:33.999Z,101425.50
2018-09-28T18:48:02.987Z,101429.44
2018-09-28T18:50:32.040Z,101436.65
2018-09-28T18:53:01.033Z,101433.48
2018-09-28T18:55:30.003Z,101431.39
2018-09-28T18:57:58.907Z,101439.34
2018-09-28T19:00:27.726Z,101432.84
2018-09-28T19:02:56.655Z,101439.09
2018-09-28T19:05:25.469Z,101436.53
2018-09-28T19:07:54.936Z,101440.91
2018-09-28T19:10:23.751Z,101446.78
2018-09-28T19:12:52.727Z,101450.34
2018-09-28T19:15:21.658Z,101452.67
2018-09-28T19:17:50.536Z,101464.27
2018-09-28T19:20:19.593Z,101469.30
2018-09-28T19:22:48.825Z,101467.09
2018-09-28T19:25:17.645Z,101463.54
2018-09-28T19:27:46.441Z,101474.30
2018-09-28T19:30:15.265Z,101468.06
2018-09-28T19:32:44.161Z,101474.78
2018-09-28T19:35:13.062Z,101482.86
2018-09-28T19:37:41.955Z,101489.72
2018-09-28T19:40:10.857Z,101485.20
2018-09-28T19:42:39.687Z,101491.92
2018-09-28T19:45:08.504Z,101498.27
2018-09-28T19:47:37.325Z,101495.58
2018-09-28T19:50:06.251Z,101502.31
2018-09-28T19:52:35.170Z,101500.96
2018-09-28T19:55:04.219Z,101506.34
2018-09-28T19:57:33.189Z,101511.73
2018-09-28T20:00:01.991Z,101513.94
2018-09-28T20:02:30.820Z,101516.25
2018-09-28T20:04:59.702Z,101513.94
2018-09-28T20:07:28.527Z,101520.19
2018-09-28T20:09:57.374Z,101521.14
2018-09-28T20:12:26.344Z,101524.22
2018-09-28T20:14:55.391Z,101528.74
2018-09-28T20:17:24.326Z,101528.26
2018-09-28T20:19:53.138Z,101519.80
2018-09-28T20:22:22.017Z,101524.22
2018-09-28T20:24:50.880Z,101531.81
2018-09-28T20:27:19.816Z,101529.61
2018-09-28T20:29:48.681Z,101538.55
2018-09-28T20:32:17.522Z,101536.33
2018-09-28T20:34:47.293Z,101543.92
2018-09-28T20:37:16.099Z,101536.81
2018-09-28T20:39:44.937Z,101543.06
2018-09-28T20:42:13.800Z,101543.06
2018-09-28T20:44:42.651Z,101545.75
2018-09-28T20:47:11.482Z,101544.76
2018-09-28T20:49:40.261Z,101548.44
2018-09-28T20:52:09.062Z,101539.50
2018-09-28T20:54:37.905Z,101546.72
2018-09-28T20:57:06.760Z,101547.19
2018-09-28T20:59:35.579Z,101556.61
2018-09-28T21:02:04.911Z,101559.78
2018-09-28T21:04:33.689Z,101559.78
2018-09-28T21:07:03.104Z,101572.77
2018-09-28T21:09:31.940Z,101571.06
2018-09-28T21:12:00.789Z,101566.52
2018-09-28T21:14:29.556Z,101575.94
2018-09-28T21:16:58.369Z,101577.80
2018-09-28T21:19:27.231Z,101583.66
2018-09-28T21:21:56.026Z,101588.55
2018-09-28T21:24:24.852Z,101592.20
2018-09-28T21:26:53.742Z,101596.24
2018-09-28T21:29:22.614Z,101607.39
2018-09-28T21:31:51.379Z,101607.75
2018-09-28T21:34:20.140Z,101607.39
2018-09-28T21:36:48.989Z,101603.84
2018-09-28T21:39:17.832Z,101604.70
2018-09-28T21:41:46.619Z,101606.53
2018-09-28T21:44:15.351Z,101607.39
2018-09-28T21:46:44.188Z,101610.92
2018-09-28T21:49:12.946Z,101617.64
2018-09-28T21:51:41.700Z,101616.81
2018-09-28T21:54:10.482Z,101614.48
2018-09-28T21:56:39.227Z,101609.95
2018-09-28T21:59:08.043Z,101610.92
2018-09-28T22:01:36.799Z,101616.81
2018-09-28T22:04:06.067Z,101613.25
2018-09-28T22:06:34.803Z,101623.55
2018-09-28T22:09:05.476Z,101625.37
2018-09-28T22:11:34.220Z,101633.44
2018-09-28T22:14:03.113Z,101630.75
2018-09-28T22:16:32.025Z,101637.00
2018-09-28T22:19:00.777Z,101631.61
2018-09-28T22:21:29.622Z,101632.09
2018-09-28T22:23:58.417Z,101631.70
2018-09-28T22:26:27.771Z,101642.86
2018-09-28T22:28:56.553Z,101641.13
2018-09-28T22:31:25.311Z,101639.78
2018-09-28T22:33:54.176Z,101641.13
2018-09-28T22:36:22.958Z,101646.52
2018-09-28T22:38:51.742Z,101650.55
2018-09-28T22:41:20.463Z,101653.23
2018-09-28T22:43:49.363Z,101654.59
2018-09-28T22:46:18.160Z,101643.08
2018-09-28T22:48:46.949Z,101651.16
2018-09-28T22:51:15.778Z,101655.58
2018-09-28T22:53:44.509Z,101645.77
2018-09-28T22:56:13.308Z,101662.78
2018-09-28T22:58:42.168Z,101657.88
2018-09-28T23:01:10.915Z,101658.36
2018-09-28T23:03:40.150Z,101658.36
2018-09-28T23:06:08.970Z,101666.91
2018-09-28T23:08:37.768Z,101665.09
2018-09-28T23:11:06.647Z,101674.03
2018-09-28T23:13:35.469Z,101677.67
2018-09-28T23:16:04.522Z,101686.27
2018-09-28T23:18:33.414Z,101692.13
2018-09-28T23:21:02.290Z,101696.16
2018-09-28T23:23:31.070Z,101688.95
2018-09-28T23:25:59.829Z,101691.25
2018-09-28T23:28:28.984Z,101694.81
2018-09-28T23:30:57.824Z,101711.44
2018-09-28T23:33:26.701Z,101709.14
2018-09-28T23:35:55.499Z,101709.23
2018-09-28T23:38:24.261Z,101708.27
2018-09-28T23:40:53.112Z,101709.14
2018-09-28T23:43:21.867Z,101706.06
2018-09-28T23:45:50.734Z,101716.34
2018-09-28T23:48:19.572Z,101711.92
2018-09-28T23:50:48.412Z,101718.29
2018-09-28T23:53:17.191Z,101725.37
2018-09-28T23:55:45.913Z,101722.33
2018-09-28T23:58:14.733Z,101722.33
